createdAt,value
2022-10-18T04:30:58.658Z,0.00
2022-10-18T04:31:58.634Z,0.00
2022-10-18T04:32:58.605Z,0.00
2022-10-18T04:33:58.594Z,0.00
2022-10-18T04:34:58.675Z,0.00
2022-10-18T04:35:58.576Z,0.00
2022-10-18T04:36:58.576Z,0.00
2022-10-18T04:37:58.545Z,0.00
2022-10-18T04:38:58.543Z,0.00
2022-10-18T04:39:58.525Z,0.00
2022-10-18T04:40:58.496Z,0.00
2022-10-18T04:41:58.485Z,0.00
2022-10-18T04:42:58.476Z,0.00
2022-10-18T04:43:58.455Z,0.00
2022-10-18T04:44:58.473Z,0.00
2022-10-18T04:45:58.443Z,0.00
2022-10-18T04:46:58.430Z,0.00
2022-10-18T04:47:58.434Z,0.00
2022-10-18T04:48:58.395Z,0.00
2022-10-18T04:51:14.511Z,0.00
2022-10-18T04:52:14.484Z,0.00
2022-10-18T04:53:14.474Z,0.00
2022-10-18T04:54:14.462Z,0.00
2022-10-18T04:55:14.459Z,0.00
2022-10-18T04:56:14.433Z,0.00
2022-10-18T04:57:14.412Z,0.00
2022-10-18T04:58:14.412Z,0.00
2022-10-18T04:59:14.391Z,0.00
2022-10-18T05:00:14.402Z,0.00
2022-10-18T05:01:14.424Z,0.00
2022-10-18T05:02:14.356Z,0.00
2022-10-18T05:03:14.341Z,0.00
2022-10-18T05:04:14.332Z,0.00
2022-10-18T05:05:14.467Z,0.00
2022-10-18T05:06:14.310Z,0.00
2022-10-18T05:07:14.280Z,0.00
2022-10-18T05:08:14.272Z,0.00
2022-10-18T05:09:14.273Z,0.00
2022-10-18T05:10:14.250Z,0.00
2022-10-18T05:11:14.247Z,0.00
2022-10-18T05:12:14.220Z,0.00
2022-10-18T05:13:14.211Z,0.00
2022-10-18T05:14:14.202Z,0.00
2022-10-18T05:15:14.172Z,0.00
2022-10-18T05:16:14.161Z,0.00
2022-10-18T05:17:14.180Z,0.00
2022-10-18T05:18:14.141Z,0.00
2022-10-18T05:19:14.131Z,0.00
2022-10-18T05:21:14.090Z,0.00
2022-10-18T05:22:14.088Z,0.00
2022-10-18T05:23:14.071Z,0.00
2022-10-18T05:24:14.069Z,0.00
2022-10-18T05:25:14.039Z,0.00
2022-10-18T05:26:14.031Z,0.00
2022-10-18T05:27:14.010Z,0.00
2022-10-18T05:28:38.111Z,0.00
2022-10-18T05:29:15.089Z,0.00
2022-10-18T05:30:13.980Z,0.00
2022-10-18T05:31:13.961Z,0.00
2022-10-18T05:32:13.949Z,0.00
2022-10-18T05:33:13.931Z,0.00
2022-10-18T05:34:13.929Z,0.00
2022-10-18T05:35:13.902Z,4.00
2022-10-18T05:36:13.900Z,4.00
2022-10-18T05:37:13.880Z,4.00
2022-10-18T05:38:13.867Z,0.00
2022-10-18T05:39:13.930Z,4.00
2022-10-18T05:40:13.839Z,0.00
2022-10-18T05:41:13.823Z,4.00
2022-10-18T05:42:13.830Z,8.00
2022-10-18T05:43:13.791Z,4.00
2022-10-18T05:44:13.811Z,8.00
2022-10-18T05:45:13.769Z,8.00
2022-10-18T05:46:15.679Z,8.00
2022-10-18T05:47:13.749Z,12.00
2022-10-18T05:48:13.730Z,12.00
2022-10-18T05:49:13.738Z,12.00
2022-10-18T05:50:13.720Z,16.00
2022-10-18T05:51:13.690Z,16.00
2022-10-18T05:52:13.679Z,16.00
2022-10-18T05:53:35.293Z,20.00
2022-10-18T05:54:14.660Z,20.00
2022-10-18T05:55:13.632Z,20.00
2022-10-18T05:56:13.631Z,24.00
2022-10-18T05:57:13.686Z,24.00
2022-10-18T05:58:13.598Z,28.00
2022-10-18T05:59:13.589Z,32.00
2022-10-18T06:00:13.569Z,32.00
2022-10-18T06:01:13.549Z,36.00
2022-10-18T06:02:13.609Z,40.00
2022-10-18T06:03:13.529Z,40.00
2022-10-18T06:04:13.528Z,48.00
2022-10-18T06:05:13.529Z,52.00
2022-10-18T06:06:13.488Z,56.00
2022-10-18T06:07:13.469Z,60.00
2022-10-18T06:08:13.466Z,64.00
2022-10-18T06:09:13.519Z,68.00
2022-10-18T06:10:13.430Z,76.00
2022-10-18T06:11:13.427Z,80.00
2022-10-18T06:12:13.408Z,80.00
2022-10-18T06:13:13.400Z,80.00
2022-10-18T06:14:13.393Z,76.00
2022-10-18T06:15:13.380Z,72.00
2022-10-18T06:16:13.382Z,80.00
2022-10-18T06:17:13.348Z,88.00
2022-10-18T06:18:13.334Z,100.00
2022-10-18T06:19:13.328Z,112.00
2022-10-18T06:20:13.306Z,124.00
2022-10-18T06:21:13.291Z,136.00
2022-10-18T06:22:13.289Z,152.00
2022-10-18T06:23:13.287Z,164.00
2022-10-18T06:24:13.296Z,180.00
2022-10-18T06:25:13.258Z,184.00
2022-10-18T06:26:13.217Z,192.00
2022-10-18T06:27:13.218Z,204.00
2022-10-18T06:28:13.189Z,220.00
2022-10-18T06:29:13.288Z,236.00
2022-10-18T06:30:13.175Z,252.00
2022-10-18T06:31:13.158Z,272.00
2022-10-18T06:32:13.138Z,292.00
2022-10-18T06:33:13.171Z,320.00
2022-10-18T06:34:13.126Z,344.00
2022-10-18T06:35:13.107Z,360.00
2022-10-18T06:36:13.112Z,372.00
2022-10-18T06:37:13.094Z,384.00
2022-10-18T06:38:13.058Z,380.00
2022-10-18T06:39:13.058Z,384.00
2022-10-18T06:40:13.122Z,384.00
2022-10-18T06:41:13.027Z,384.00
2022-10-18T06:42:13.005Z,372.00
2022-10-18T06:43:21.308Z,348.00
2022-10-18T06:44:13.997Z,320.00
2022-10-18T06:45:12.967Z,304.00
2022-10-18T06:46:12.950Z,300.00
2022-10-18T06:47:12.937Z,320.00
2022-10-18T06:48:13.002Z,340.00
2022-10-18T06:49:14.094Z,364.00
2022-10-18T06:50:12.899Z,376.00
2022-10-18T06:51:12.887Z,388.00
2022-10-18T06:52:12.866Z,388.00
2022-10-18T06:53:12.857Z,396.00
2022-10-18T06:54:18.152Z,404.00
2022-10-18T06:55:13.835Z,420.00
2022-10-18T06:56:12.813Z,440.00
2022-10-18T06:57:12.797Z,460.00
2022-10-18T06:58:12.808Z,484.00
2022-10-18T06:59:12.800Z,504.00
2022-10-18T07:00:12.757Z,524.00
2022-10-18T07:01:12.837Z,540.00
2022-10-18T07:02:12.736Z,556.00
2022-10-18T07:03:12.740Z,572.00
2022-10-18T07:04:12.706Z,588.00
2022-10-18T07:05:12.695Z,604.00
2022-10-18T07:06:12.701Z,624.00
2022-10-18T07:07:12.667Z,648.00
2022-10-18T07:08:12.677Z,684.00
2022-10-18T07:09:12.638Z,716.00
2022-10-18T07:10:13.098Z,744.00
2022-10-18T07:11:12.614Z,764.00
2022-10-18T07:12:12.595Z,780.00
2022-10-18T07:13:31.440Z,804.00
2022-10-18T07:14:16.290Z,836.00
2022-10-18T07:15:12.570Z,872.00
2022-10-18T07:16:14.290Z,908.00
2022-10-18T07:17:12.534Z,948.00
2022-10-18T07:18:12.514Z,988.00
2022-10-18T07:19:12.513Z,1020.00
2022-10-18T07:20:12.485Z,1044.00
2022-10-18T07:21:12.475Z,1080.00
2022-10-18T07:22:12.465Z,1132.00
2022-10-18T07:23:12.445Z,1180.00
2022-10-18T07:24:12.445Z,1240.00
2022-10-18T07:25:12.425Z,1304.00
2022-10-18T07:26:12.405Z,1372.00
2022-10-18T07:27:12.395Z,1440.00
2022-10-18T07:28:12.389Z,1512.00
2022-10-18T07:29:12.575Z,1584.00
2022-10-18T07:30:12.355Z,1680.00
2022-10-18T07:31:12.345Z,1804.00
2022-10-18T07:32:12.325Z,1952.00
2022-10-18T07:33:12.315Z,2168.00
2022-10-18T07:34:12.315Z,2636.00
2022-10-18T07:36:12.275Z,3928.00
2022-10-18T07:37:12.263Z,4448.00
2022-10-18T07:38:12.245Z,4144.00
2022-10-18T07:39:12.244Z,3400.00
2022-10-18T07:40:12.223Z,3024.00
2022-10-18T07:41:12.220Z,2812.00
2022-10-18T07:42:12.194Z,2724.00
2022-10-18T07:43:12.494Z,2692.00
2022-10-18T07:44:12.175Z,2552.00
2022-10-18T07:45:12.162Z,2296.00
2022-10-18T07:46:12.138Z,1892.00
2022-10-18T07:47:12.134Z,1536.00
2022-10-18T07:48:12.115Z,1324.00
2022-10-18T07:49:12.117Z,1312.00
2022-10-18T07:50:12.094Z,1380.00
2022-10-18T07:51:12.074Z,1500.00
2022-10-18T07:52:12.064Z,1580.00
2022-10-18T07:53:12.053Z,1580.00
2022-10-18T07:54:12.045Z,1564.00
2022-10-18T07:55:12.024Z,1444.00
2022-10-18T07:56:12.014Z,1388.00
2022-10-18T07:57:11.992Z,1388.00
2022-10-18T07:58:11.993Z,1440.00
2022-10-18T07:59:12.055Z,1524.00
2022-10-18T08:00:11.961Z,1588.00
2022-10-18T08:01:11.991Z,1600.00
2022-10-18T08:02:11.937Z,1640.00
2022-10-18T08:03:11.914Z,1796.00
2022-10-18T08:04:16.223Z,2012.00
2022-10-18T08:05:11.891Z,1928.00
2022-10-18T08:06:11.883Z,1676.00
2022-10-18T08:07:11.862Z,1532.00
2022-10-18T08:08:11.853Z,1572.00
2022-10-18T08:09:11.845Z,1612.00
2022-10-18T08:10:11.823Z,1548.00
2022-10-18T08:11:11.811Z,1604.00
2022-10-18T08:12:11.802Z,1636.00
2022-10-18T08:13:11.783Z,1468.00
2022-10-18T08:14:11.793Z,1284.00
2022-10-18T08:15:11.755Z,1136.00
2022-10-18T08:16:11.744Z,1124.00
2022-10-18T08:17:11.737Z,1168.00
2022-10-18T08:18:11.730Z,1292.00
2022-10-18T08:19:11.720Z,1436.00
2022-10-18T08:20:19.279Z,1472.00
2022-10-18T08:21:12.672Z,1440.00
2022-10-18T08:22:11.664Z,1520.00
2022-10-18T08:23:11.661Z,1724.00
2022-10-18T08:24:11.643Z,2128.00
2022-10-18T08:25:11.624Z,2604.00
2022-10-18T08:26:11.617Z,2604.00
2022-10-18T08:27:11.602Z,2688.00
2022-10-18T08:28:11.604Z,2848.00
2022-10-18T08:29:22.516Z,3100.00
2022-10-18T08:30:12.562Z,3572.00
2022-10-18T08:31:11.543Z,3708.00
2022-10-18T08:32:11.543Z,3284.00
2022-10-18T08:33:11.522Z,2856.00
2022-10-18T08:34:14.779Z,2628.00
2022-10-18T08:35:12.502Z,2916.00
2022-10-18T08:36:11.482Z,3524.00
2022-10-18T08:37:11.463Z,4300.00
2022-10-18T08:38:15.185Z,5084.00
2022-10-18T08:39:12.432Z,5856.00
2022-10-18T08:40:11.433Z,5632.00
2022-10-18T08:41:11.421Z,4868.00
2022-10-18T08:42:11.402Z,3972.00
2022-10-18T08:43:11.401Z,3536.00
2022-10-18T08:44:11.381Z,3448.00
2022-10-18T08:45:12.952Z,3376.00
2022-10-18T08:46:12.353Z,3704.00
2022-10-18T08:47:11.353Z,3984.00
2022-10-18T08:48:11.333Z,3888.00
2022-10-18T08:49:11.341Z,3664.00
2022-10-18T08:50:11.352Z,3496.00
2022-10-18T08:51:11.300Z,3412.00
2022-10-18T08:52:11.291Z,3236.00
2022-10-18T08:53:11.251Z,2828.00
2022-10-18T08:54:11.253Z,2652.00
2022-10-18T08:55:11.231Z,3180.00
2022-10-18T08:56:11.221Z,4124.00
2022-10-18T08:57:11.213Z,4944.00
2022-10-18T08:58:11.202Z,4792.00
2022-10-18T08:59:11.182Z,4632.00
2022-10-18T09:00:11.172Z,4708.00
2022-10-18T09:01:11.167Z,4836.00
2022-10-18T09:02:11.172Z,5144.00
2022-10-18T09:03:11.181Z,5356.00
2022-10-18T09:04:11.120Z,5184.00
2022-10-18T09:05:11.091Z,4508.00
2022-10-18T09:06:11.093Z,3756.00
2022-10-18T09:07:11.074Z,3236.00
2022-10-18T09:08:11.093Z,3216.00
2022-10-18T09:09:11.097Z,3248.00
2022-10-18T09:10:11.104Z,3360.00
2022-10-18T09:11:11.022Z,3660.00
2022-10-18T09:12:11.010Z,4400.00
2022-10-18T09:13:11.011Z,6152.00
2022-10-18T09:14:10.979Z,7768.00
2022-10-18T09:15:10.960Z,8368.00
2022-10-18T09:16:10.972Z,9088.00
2022-10-18T09:17:15.788Z,7928.00
2022-10-18T09:18:11.940Z,8852.00
2022-10-18T09:19:10.919Z,13168.00
2022-10-18T09:20:10.901Z,14368.00
2022-10-18T09:21:10.881Z,16544.00
2022-10-18T09:22:10.870Z,19456.00
2022-10-18T09:23:10.881Z,22176.00
2022-10-18T09:24:10.873Z,33312.00
2022-10-18T09:25:10.833Z,34112.00
2022-10-18T09:26:10.833Z,15060.00
2022-10-18T09:27:10.800Z,36736.00
2022-10-18T09:28:10.811Z,36576.00
2022-10-18T09:29:10.899Z,11976.00
2022-10-18T09:30:10.771Z,13820.00
2022-10-18T09:31:10.753Z,15372.00
2022-10-18T09:32:10.743Z,13516.00
2022-10-18T09:33:10.730Z,13056.00
2022-10-18T09:34:10.721Z,36288.00
2022-10-18T09:35:10.723Z,34944.00
2022-10-18T09:36:10.713Z,35008.00
2022-10-18T09:37:10.692Z,36352.00
2022-10-18T09:38:10.673Z,36896.00
2022-10-18T09:39:10.641Z,36736.00
2022-10-18T09:40:12.167Z,38240.00
2022-10-18T09:41:10.620Z,41920.00
2022-10-18T09:42:10.610Z,43168.00
2022-10-18T09:43:10.601Z,43040.00
2022-10-18T09:44:10.586Z,42176.00
2022-10-18T09:45:10.572Z,45216.00
2022-10-18T09:46:10.562Z,45056.00
2022-10-18T09:47:13.365Z,20288.00
2022-10-18T09:48:11.539Z,12372.00
2022-10-18T09:49:12.975Z,9724.00
2022-10-18T09:50:11.503Z,10876.00
2022-10-18T09:51:10.484Z,42208.00
2022-10-18T09:52:10.482Z,43104.00
2022-10-18T09:53:10.472Z,44032.00
2022-10-18T09:54:10.454Z,46208.00
2022-10-18T09:55:10.436Z,48128.00
2022-10-18T09:56:10.421Z,46432.00
2022-10-18T09:57:10.405Z,48320.00
2022-10-18T09:58:10.413Z,45216.00
2022-10-18T09:59:10.382Z,47680.00
2022-10-18T10:00:10.383Z,49184.00
2022-10-18T10:01:10.352Z,38688.00
2022-10-18T10:02:10.384Z,38720.00
2022-10-18T10:03:10.333Z,13608.00
2022-10-18T10:04:10.334Z,11028.00
2022-10-18T10:06:10.372Z,14220.00
2022-10-18T10:07:10.278Z,13096.00
2022-10-18T10:08:10.272Z,14012.00
2022-10-18T10:09:10.264Z,17152.00
2022-10-18T10:10:10.258Z,12000.00
2022-10-18T10:11:10.233Z,12372.00
2022-10-18T10:12:10.258Z,12040.00
2022-10-18T10:13:10.193Z,16992.00
2022-10-18T10:14:10.248Z,12788.00
2022-10-18T10:15:10.180Z,47936.00
2022-10-18T10:16:10.163Z,20224.00
2022-10-18T10:17:10.146Z,57920.00
2022-10-18T10:18:10.144Z,58400.00
2022-10-18T10:19:10.134Z,59040.00
2022-10-18T10:20:10.115Z,58528.00
2022-10-18T10:21:10.095Z,55968.00
2022-10-18T10:22:10.113Z,49760.00
2022-10-18T10:23:10.135Z,11416.00
2022-10-18T10:24:10.072Z,12100.00
2022-10-18T10:25:10.044Z,57440.00
2022-10-18T10:26:10.024Z,59008.00
2022-10-18T10:27:10.018Z,58464.00
2022-10-18T10:28:10.005Z,56928.00
2022-10-18T10:29:17.372Z,22432.00
2022-10-18T10:30:10.975Z,58464.00
2022-10-18T10:31:09.965Z,58016.00
2022-10-18T10:32:09.945Z,63296.00
2022-10-18T10:33:09.951Z,62176.00
2022-10-18T10:34:09.936Z,61088.00
2022-10-18T10:35:13.584Z,63648.00
2022-10-18T10:36:10.895Z,51200.00
2022-10-18T10:37:09.886Z,68416.00
2022-10-18T10:38:09.884Z,68576.00
2022-10-18T10:39:09.875Z,18144.00
2022-10-18T10:40:26.495Z,13468.00
2022-10-18T10:41:10.837Z,13872.00
2022-10-18T10:42:11.461Z,21856.00
2022-10-18T10:43:18.331Z,21952.00
2022-10-18T10:44:10.808Z,63200.00
2022-10-18T10:45:09.788Z,14284.00
2022-10-18T10:46:09.766Z,36192.00
2022-10-18T10:47:09.757Z,61280.00
2022-10-18T10:48:09.745Z,26624.00
2022-10-18T10:49:38.529Z,66400.00
2022-10-18T10:51:00.502Z,29376.00
2022-10-18T10:52:09.021Z,68032.00
2022-10-18T10:53:01.463Z,64896.00
2022-10-18T10:54:00.461Z,15988.00
2022-10-18T10:55:06.252Z,63744.00
2022-10-18T10:56:01.423Z,68160.00
2022-10-18T10:57:00.422Z,68736.00
2022-10-18T10:58:00.402Z,67744.00
2022-10-18T10:59:00.430Z,68320.00
2022-10-18T11:00:00.384Z,68224.00
2022-10-18T11:01:00.364Z,70144.00
2022-10-18T11:02:00.352Z,72992.00
2022-10-18T11:03:06.142Z,71232.00
2022-10-18T11:04:01.399Z,66624.00
2022-10-18T11:05:00.325Z,22752.00
2022-10-18T11:06:00.315Z,16800.00
2022-10-18T11:07:00.304Z,9444.00
2022-10-18T11:08:00.274Z,9008.00
2022-10-18T11:09:00.265Z,8964.00
2022-10-18T11:10:00.255Z,9148.00
2022-10-18T11:11:00.235Z,9576.00
2022-10-18T11:12:00.226Z,9220.00
2022-10-18T11:13:00.217Z,13868.00
2022-10-18T11:14:24.643Z,18976.00
2022-10-18T11:15:01.195Z,22112.00
2022-10-18T11:16:00.169Z,33760.00
2022-10-18T11:17:03.105Z,71488.00
2022-10-18T11:18:01.157Z,71168.00
2022-10-18T11:19:00.146Z,74144.00
2022-10-18T11:20:00.115Z,21504.00
2022-10-18T11:21:00.106Z,41344.00
2022-10-18T11:22:00.087Z,16320.00
2022-10-18T11:23:00.087Z,12328.00
2022-10-18T11:24:00.077Z,11436.00
2022-10-18T11:25:00.058Z,26464.00
2022-10-18T11:26:00.038Z,41472.00
2022-10-18T11:27:00.031Z,22880.00
2022-10-18T11:28:00.017Z,77280.00
2022-10-18T11:29:00.079Z,75712.00
2022-10-18T11:29:59.988Z,78624.00
2022-10-18T11:30:59.978Z,77952.00
2022-10-18T11:31:59.961Z,79648.00
2022-10-18T11:32:59.956Z,76992.00
2022-10-18T11:34:15.315Z,79968.00
2022-10-18T11:35:00.948Z,78656.00
2022-10-18T11:36:03.645Z,81952.00
2022-10-18T11:37:22.941Z,81152.00
2022-10-18T11:38:00.894Z,81472.00
2022-10-18T11:38:59.900Z,78944.00
2022-10-18T11:39:59.858Z,71712.00
2022-10-18T11:40:59.849Z,38240.00
2022-10-18T11:41:59.838Z,60000.00
2022-10-18T11:42:59.829Z,77760.00
2022-10-18T11:44:03.727Z,79584.00
2022-10-18T11:44:59.801Z,79264.00
2022-10-18T11:45:59.781Z,80288.00
2022-10-18T11:46:59.778Z,84000.00
2022-10-18T11:47:59.760Z,80800.00
2022-10-18T11:48:59.968Z,80768.00
2022-10-18T11:49:59.730Z,81760.00
2022-10-18T11:50:59.722Z,80768.00
2022-10-18T11:52:08.654Z,83648.00
2022-10-18T11:53:00.712Z,80672.00
2022-10-18T11:53:59.689Z,81536.00
2022-10-18T11:54:59.671Z,84128.00
2022-10-18T11:55:59.661Z,86144.00
2022-10-18T11:56:59.649Z,83904.00
2022-10-18T11:57:59.647Z,85152.00
2022-10-18T11:58:59.631Z,87328.00
2022-10-18T11:59:59.602Z,83616.00
2022-10-18T12:00:59.592Z,51968.00
2022-10-18T12:01:59.583Z,85504.00
2022-10-18T12:02:59.646Z,86080.00
2022-10-18T12:03:59.572Z,83648.00
2022-10-18T12:06:00.524Z,11120.00
2022-10-18T12:06:59.523Z,84512.00
2022-10-18T12:07:59.512Z,89312.00
2022-10-18T12:08:59.522Z,91360.00
2022-10-18T12:09:59.486Z,90240.00
2022-10-18T12:11:05.106Z,88832.00
2022-10-18T12:12:00.464Z,89568.00
2022-10-18T12:12:59.454Z,87168.00
2022-10-18T12:13:59.444Z,89504.00
2022-10-18T12:14:59.443Z,90240.00
2022-10-18T12:15:59.415Z,88480.00
2022-10-18T12:17:27.943Z,90368.00
2022-10-18T12:18:00.385Z,90016.00
2022-10-18T12:18:59.386Z,89248.00
2022-10-18T12:19:59.391Z,88608.00
2022-10-18T12:20:59.356Z,84864.00
2022-10-18T12:21:59.337Z,82144.00
2022-10-18T12:22:59.326Z,84320.00
2022-10-18T12:23:59.318Z,80064.00
2022-10-18T12:24:59.317Z,23968.00
2022-10-18T12:25:59.320Z,14164.00
2022-10-18T12:26:59.336Z,29440.00
2022-10-18T12:28:59.287Z,85664.00
2022-10-18T12:29:59.258Z,87488.00
2022-10-18T12:30:59.218Z,87552.00
2022-10-18T12:31:59.217Z,88960.00
2022-10-18T12:33:09.872Z,86528.00
2022-10-18T12:34:00.190Z,87520.00
2022-10-18T12:34:59.190Z,86112.00
2022-10-18T12:35:59.170Z,85216.00
2022-10-18T12:36:59.161Z,87040.00
2022-10-18T12:37:59.139Z,85888.00
2022-10-18T12:38:59.127Z,85664.00
2022-10-18T12:40:10.182Z,14712.00
2022-10-18T12:41:00.099Z,91360.00
2022-10-18T12:41:59.091Z,96288.00
2022-10-18T12:42:59.077Z,10704.00
2022-10-18T12:43:59.070Z,74720.00
2022-10-18T12:44:59.062Z,15592.00
2022-10-18T12:45:59.050Z,11180.00
2022-10-18T12:46:59.020Z,108064.00
2022-10-18T12:47:59.034Z,115712.00
2022-10-18T12:48:59.020Z,95808.00
2022-10-18T12:49:58.991Z,86560.00
2022-10-18T12:50:58.971Z,82816.00
2022-10-18T12:51:58.976Z,57344.00
2022-10-18T12:52:58.959Z,45440.00
2022-10-18T12:53:58.943Z,28416.00
2022-10-18T12:54:58.933Z,21664.00
2022-10-18T12:55:58.921Z,21056.00
2022-10-18T12:56:58.909Z,8432.00
2022-10-18T12:57:58.922Z,7096.00
2022-10-18T12:58:58.888Z,7692.00
2022-10-18T12:59:58.884Z,6780.00
2022-10-18T13:00:58.854Z,14816.00
2022-10-18T13:01:58.906Z,9656.00
2022-10-18T13:02:58.832Z,17888.00
2022-10-18T13:03:58.857Z,7836.00
2022-10-18T13:06:00.729Z,9648.00
2022-10-18T13:06:58.783Z,8808.00
2022-10-18T13:07:58.809Z,7668.00
2022-10-18T13:08:58.763Z,7024.00
2022-10-18T13:09:58.764Z,7176.00
2022-10-18T13:10:58.724Z,6988.00
2022-10-18T13:12:01.949Z,6368.00
2022-10-18T13:12:58.715Z,5896.00
2022-10-18T13:13:58.729Z,5708.00
2022-10-18T13:15:12.536Z,5608.00
2022-10-18T13:15:59.665Z,5608.00
2022-10-18T13:16:58.653Z,5496.00
2022-10-18T13:17:58.703Z,5368.00
2022-10-18T13:18:58.626Z,5268.00
2022-10-18T13:20:24.011Z,5196.00
2022-10-18T13:20:59.599Z,5120.00
2022-10-18T13:21:58.584Z,5052.00
2022-10-18T13:22:58.573Z,4996.00
2022-10-18T13:23:58.564Z,4904.00
2022-10-18T13:24:58.555Z,4848.00
2022-10-18T13:25:58.535Z,4792.00
2022-10-18T13:27:04.101Z,4732.00
2022-10-18T13:27:59.507Z,4696.00
2022-10-18T13:28:58.545Z,4684.00
2022-10-18T13:29:58.495Z,4668.00
2022-10-18T13:30:58.465Z,4620.00
2022-10-18T13:31:58.455Z,4584.00
2022-10-18T13:32:58.455Z,4568.00
2022-10-18T13:33:58.437Z,4532.00
2022-10-18T13:34:58.425Z,4516.00
2022-10-18T13:35:58.405Z,4488.00
2022-10-18T13:36:58.388Z,4452.00
2022-10-18T13:37:58.396Z,4448.00
2022-10-18T13:38:58.376Z,4444.00
2022-10-18T13:39:58.395Z,4428.00
2022-10-18T13:40:58.336Z,4416.00
2022-10-18T13:41:58.345Z,4392.00
2022-10-18T13:42:58.319Z,4380.00
2022-10-18T13:43:58.311Z,4356.00
2022-10-18T13:44:58.287Z,4332.00
2022-10-18T13:45:58.304Z,4316.00
2022-10-18T13:46:58.256Z,4308.00
2022-10-18T13:47:58.256Z,4296.00
2022-10-18T13:48:58.236Z,4268.00
2022-10-18T13:49:59.635Z,4228.00
2022-10-18T13:50:58.226Z,4196.00
2022-10-18T13:51:58.246Z,4172.00
2022-10-18T13:52:58.187Z,4136.00
2022-10-18T13:53:58.167Z,4104.00
2022-10-18T13:54:58.165Z,4072.00
2022-10-18T13:55:58.155Z,4068.00
2022-10-18T13:56:58.137Z,4072.00
2022-10-18T13:57:58.116Z,4068.00
2022-10-18T13:59:13.230Z,4060.00
2022-10-18T13:59:59.099Z,4044.00
2022-10-18T14:00:58.076Z,4032.00
2022-10-18T14:01:58.094Z,4032.00
2022-10-18T14:03:00.084Z,4020.00
2022-10-18T14:03:58.856Z,4012.00
2022-10-18T14:05:10.900Z,3996.00
2022-10-18T14:05:59.025Z,3984.00
2022-10-18T14:07:02.060Z,3972.00
2022-10-18T14:07:57.978Z,3964.00
2022-10-18T14:08:57.995Z,3960.00
2022-10-18T14:10:01.806Z,3944.00
2022-10-18T14:11:02.427Z,3940.00
2022-10-18T14:11:57.927Z,3932.00
2022-10-18T14:12:57.966Z,3936.00
2022-10-18T14:13:57.904Z,3936.00
2022-10-18T14:14:57.888Z,3928.00
2022-10-18T14:15:57.896Z,3912.00
2022-10-18T14:16:57.868Z,3880.00
2022-10-18T14:17:57.846Z,3864.00
2022-10-18T14:18:57.845Z,3852.00
2022-10-18T14:19:57.827Z,3832.00
2022-10-18T14:21:12.860Z,3800.00
2022-10-18T14:21:58.825Z,3784.00
2022-10-18T14:22:57.787Z,3772.00
2022-10-18T14:23:57.775Z,3752.00
2022-10-18T14:24:57.766Z,3728.00
2022-10-18T14:25:57.756Z,3708.00
2022-10-18T14:26:57.737Z,3700.00
2022-10-18T14:27:57.722Z,3684.00
2022-10-18T14:29:00.023Z,3668.00
2022-10-18T14:29:57.696Z,3648.00
2022-10-18T14:30:57.697Z,3604.00
2022-10-18T14:31:57.668Z,3568.00
2022-10-18T14:32:57.666Z,3544.00
2022-10-18T14:33:58.762Z,3536.00
2022-10-18T14:35:27.234Z,3524.00
2022-10-18T14:35:58.628Z,3504.00
2022-10-18T14:36:57.607Z,3476.00
2022-10-18T14:37:57.586Z,3460.00
2022-10-18T14:38:57.598Z,3440.00
2022-10-18T14:39:57.608Z,3432.00
2022-10-18T14:40:57.577Z,3424.00
2022-10-18T14:41:57.536Z,3424.00
2022-10-18T14:42:57.527Z,3424.00
2022-10-18T14:43:57.507Z,3392.00
2022-10-18T14:44:57.537Z,3368.00
2022-10-18T14:45:57.497Z,3332.00
2022-10-18T14:46:57.477Z,3308.00
2022-10-18T14:47:57.467Z,3288.00
2022-10-18T14:48:57.449Z,3280.00
2022-10-18T14:49:57.435Z,3276.00
2022-10-18T14:50:57.440Z,3280.00
2022-10-18T14:51:57.406Z,3288.00
2022-10-18T14:52:57.401Z,3296.00
2022-10-18T14:53:57.426Z,3292.00
2022-10-18T14:54:57.366Z,3288.00
2022-10-18T14:55:57.365Z,3248.00
2022-10-18T14:56:57.346Z,3224.00
2022-10-18T14:57:57.326Z,3220.00
2022-10-18T14:58:57.317Z,3216.00
2022-10-18T14:59:57.297Z,3212.00
2022-10-18T15:00:57.351Z,3204.00
2022-10-18T15:01:57.279Z,3204.00
2022-10-18T15:02:57.267Z,3200.00
2022-10-18T15:03:57.246Z,3196.00
2022-10-18T15:04:57.249Z,3188.00
2022-10-18T15:05:57.236Z,3176.00
2022-10-18T15:06:57.229Z,3164.00
2022-10-18T15:07:57.187Z,3144.00
2022-10-18T15:08:57.187Z,3124.00
2022-10-18T15:09:57.167Z,3096.00
2022-10-18T15:10:57.176Z,3076.00
2022-10-18T15:11:57.155Z,3060.00
2022-10-18T15:13:09.218Z,3048.00
2022-10-18T15:13:58.189Z,3036.00
2022-10-18T15:14:57.106Z,3020.00
2022-10-18T15:15:57.107Z,3012.00
2022-10-18T15:16:57.085Z,2988.00
2022-10-18T15:17:57.067Z,2972.00
2022-10-18T15:18:57.055Z,2964.00
2022-10-18T15:19:59.367Z,2948.00
2022-10-18T15:20:58.057Z,2928.00
2022-10-18T15:22:19.847Z,2908.00
2022-10-18T15:22:57.997Z,2892.00
2022-10-18T15:23:56.986Z,2880.00
2022-10-18T15:24:56.978Z,2872.00
2022-10-18T15:25:56.959Z,2868.00
2022-10-18T15:26:56.965Z,2852.00
2022-10-18T15:27:56.937Z,2828.00
2022-10-18T15:28:57.035Z,2800.00
2022-10-18T15:29:56.904Z,2768.00
2022-10-18T15:30:56.896Z,2748.00
2022-10-18T15:31:56.895Z,2740.00
2022-10-18T15:32:56.866Z,2728.00
2022-10-18T15:33:56.857Z,2700.00
2022-10-18T15:34:56.845Z,2660.00
2022-10-18T15:35:56.825Z,2604.00
2022-10-18T15:36:56.817Z,2556.00
2022-10-18T15:37:56.801Z,2520.00
2022-10-18T15:38:56.787Z,2500.00
2022-10-18T15:39:56.767Z,2476.00
2022-10-18T15:40:56.766Z,2448.00
2022-10-18T15:41:56.756Z,2408.00
2022-10-18T15:42:56.737Z,2356.00
2022-10-18T15:43:56.717Z,2308.00
2022-10-18T15:44:56.707Z,2264.00
2022-10-18T15:45:58.859Z,2216.00
2022-10-18T15:46:57.727Z,2176.00
2022-10-18T15:47:56.667Z,2132.00
2022-10-18T15:48:56.680Z,2088.00
2022-10-18T15:49:56.739Z,2040.00
2022-10-18T15:50:56.626Z,2004.00
2022-10-18T15:51:56.628Z,1956.00
2022-10-18T15:52:56.606Z,1916.00
2022-10-18T15:53:56.590Z,1872.00
2022-10-18T15:54:56.577Z,1824.00
2022-10-18T15:55:56.556Z,1768.00
2022-10-18T15:56:56.547Z,1728.00
2022-10-18T15:57:56.548Z,1680.00
2022-10-18T15:58:56.525Z,1620.00
2022-10-18T15:59:56.504Z,1564.00
2022-10-18T16:00:56.500Z,1508.00
2022-10-18T16:01:56.544Z,1456.00
2022-10-18T16:02:56.477Z,1408.00
2022-10-18T16:03:56.459Z,1364.00
2022-10-18T16:04:56.446Z,1320.00
2022-10-18T16:05:56.425Z,1280.00
2022-10-18T16:06:56.416Z,1232.00
2022-10-18T16:07:56.416Z,1184.00
2022-10-18T16:08:56.387Z,1132.00
2022-10-18T16:09:56.375Z,1080.00
2022-10-18T16:10:56.367Z,1036.00
2022-10-18T16:11:57.467Z,996.00
2022-10-18T16:13:58.031Z,908.00
2022-10-18T16:14:56.307Z,856.00
2022-10-18T16:15:56.295Z,816.00
2022-10-18T16:16:56.289Z,772.00
2022-10-18T16:17:56.276Z,728.00
2022-10-18T16:18:56.256Z,696.00
2022-10-18T16:19:56.236Z,656.00
2022-10-18T16:20:56.235Z,616.00
2022-10-18T16:21:56.279Z,580.00
2022-10-18T16:22:56.220Z,540.00
2022-10-18T16:23:56.194Z,508.00
2022-10-18T16:24:56.186Z,476.00
2022-10-18T16:25:56.156Z,440.00
2022-10-18T16:26:56.156Z,412.00
2022-10-18T16:27:56.146Z,380.00
2022-10-18T16:28:56.210Z,352.00
2022-10-18T16:29:56.108Z,324.00
2022-10-18T16:30:56.096Z,296.00
2022-10-18T16:31:56.093Z,268.00
2022-10-18T16:32:56.074Z,248.00
2022-10-18T16:33:56.056Z,220.00
2022-10-18T16:34:56.046Z,200.00
2022-10-18T16:35:56.060Z,180.00
2022-10-18T16:36:56.028Z,160.00
2022-10-18T16:37:55.996Z,144.00
2022-10-18T16:38:55.986Z,128.00
2022-10-18T16:39:55.976Z,108.00
2022-10-18T16:40:55.965Z,96.00
2022-10-18T16:41:55.954Z,84.00
2022-10-18T16:42:55.938Z,72.00
2022-10-18T16:43:55.914Z,64.00
2022-10-18T16:44:55.909Z,52.00
2022-10-18T16:45:55.895Z,44.00
2022-10-18T16:46:56.437Z,40.00
2022-10-18T16:47:55.865Z,32.00
2022-10-18T16:48:55.845Z,28.00
2022-10-18T16:49:55.847Z,24.00
2022-10-18T16:51:02.905Z,16.00